sensor_id;sensor_type;location;lat;lon;timestamp;temperature;humidity
30037;DHT22;36325;51.512;-0.382;2022-10-30T00:00:43;15.60;99.90
30037;DHT22;36325;51.512;-0.382;2022-10-30T00:03:15;15.60;99.90
30037;DHT22;36325;51.512;-0.382;2022-10-30T00:05:44;15.60;99.90
30037;DHT22;36325;51.512;-0.382;2022-10-30T00:08:14;15.60;99.90
30037;DHT22;36325;51.512;-0.382;2022-10-30T00:10:42;15.50;99.90
30037;DHT22;36325;51.512;-0.382;2022-10-30T00:13:10;15.50;99.90
30037;DHT22;36325;51.512;-0.382;2022-10-30T00:15:44;15.50;99.90
30037;DHT22;36325;51.512;-0.382;2022-10-30T00:18:13;15.40;99.90
30037;DHT22;36325;51.512;-0.382;2022-10-30T00:20:40;15.40;99.90
30037;DHT22;36325;51.512;-0.382;2022-10-30T00:23:07;15.40;99.90
30037;DHT22;36325;51.512;-0.382;2022-10-30T00:25:35;15.40;99.90
30037;DHT22;36325;51.512;-0.382;2022-10-30T00:28:04;15.40;99.90
30037;DHT22;36325;51.512;-0.382;2022-10-30T00:30:32;15.40;99.90
30037;DHT22;36325;51.512;-0.382;2022-10-30T00:33:00;15.40;99.90
30037;DHT22;36325;51.512;-0.382;2022-10-30T00:35:28;15.40;99.90
30037;DHT22;36325;51.512;-0.382;2022-10-30T00:37:55;15.40;99.90
30037;DHT22;36325;51.512;-0.382;2022-10-30T00:40:23;15.40;99.90
30037;DHT22;36325;51.512;-0.382;2022-10-30T00:42:50;15.50;99.90
30037;DHT22;36325;51.512;-0.382;2022-10-30T00:45:19;15.50;99.90
30037;DHT22;36325;51.512;-0.382;2022-10-30T00:47:52;15.50;99.90
30037;DHT22;36325;51.512;-0.382;2022-10-30T00:50:31;15.60;99.90
30037;DHT22;36325;51.512;-0.382;2022-10-30T00:53:15;15.60;99.90
30037;DHT22;36325;51.512;-0.382;2022-10-30T00:55:52;15.60;99.90
30037;DHT22;36325;51.512;-0.382;2022-10-30T00:58:38;15.70;99.90
30037;DHT22;36325;51.512;-0.382;2022-10-30T01:01:11;15.60;99.90
30037;DHT22;36325;51.512;-0.382;2022-10-30T01:03:42;15.60;99.90
30037;DHT22;36325;51.512;-0.382;2022-10-30T01:06:11;15.60;99.90
30037;DHT22;36325;51.512;-0.382;2022-10-30T01:08:40;15.50;99.90
30037;DHT22;36325;51.512;-0.382;2022-10-30T01:11:08;15.50;99.90
30037;DHT22;36325;51.512;-0.382;2022-10-30T01:13:36;15.40;99.90
30037;DHT22;36325;51.512;-0.382;2022-10-30T01:19:11;15.30;99.90
30037;DHT22;36325;51.512;-0.382;2022-10-30T01:28:08;15.30;99.90
30037;DHT22;36325;51.512;-0.382;2022-10-30T01:30:47;15.20;99.90
30037;DHT22;36325;51.512;-0.382;2022-10-30T01:39:17;15.10;99.90
30037;DHT22;36325;51.512;-0.382;2022-10-30T01:41:45;15.10;99.90
30037;DHT22;36325;51.512;-0.382;2022-10-30T01:44:25;15.10;99.90
30037;DHT22;36325;51.512;-0.382;2022-10-30T01:53:10;15.00;99.90
30037;DHT22;36325;51.512;-0.382;2022-10-30T01:59:06;14.90;99.90
30037;DHT22;36325;51.512;-0.382;2022-10-30T02:01:36;14.90;99.90
30037;DHT22;36325;51.512;-0.382;2022-10-30T02:04:07;14.90;99.90
30037;DHT22;36325;51.512;-0.382;2022-10-30T02:06:36;14.80;99.90
30037;DHT22;36325;51.512;-0.382;2022-10-30T02:09:04;14.80;99.90
30037;DHT22;36325;51.512;-0.382;2022-10-30T02:11:33;14.80;99.90
30037;DHT22;36325;51.512;-0.382;2022-10-30T02:14:05;14.70;99.90
30037;DHT22;36325;51.512;-0.382;2022-10-30T02:16:38;14.70;99.90
30037;DHT22;36325;51.512;-0.382;2022-10-30T02:19:09;14.70;99.90
30037;DHT22;36325;51.512;-0.382;2022-10-30T02:21:36;14.70;99.90
30037;DHT22;36325;51.512;-0.382;2022-10-30T02:24:04;14.70;99.90
30037;DHT22;36325;51.512;-0.382;2022-10-30T02:26:32;14.60;99.90
30037;DHT22;36325;51.512;-0.382;2022-10-30T02:29:00;14.60;99.90
30037;DHT22;36325;51.512;-0.382;2022-10-30T02:31:28;14.60;99.90
30037;DHT22;36325;51.512;-0.382;2022-10-30T02:33:55;14.60;99.90
30037;DHT22;36325;51.512;-0.382;2022-10-30T02:36:23;14.60;99.90
30037;DHT22;36325;51.512;-0.382;2022-10-30T02:38:52;14.50;99.90
30037;DHT22;36325;51.512;-0.382;2022-10-30T02:41:22;14.50;99.90
30037;DHT22;36325;51.512;-0.382;2022-10-30T02:43:51;14.50;99.90
30037;DHT22;36325;51.512;-0.382;2022-10-30T02:46:20;14.40;99.90
30037;DHT22;36325;51.512;-0.382;2022-10-30T02:48:47;14.40;99.90
30037;DHT22;36325;51.512;-0.382;2022-10-30T02:51:15;14.30;99.90
30037;DHT22;36325;51.512;-0.382;2022-10-30T02:53:43;14.30;99.90
30037;DHT22;36325;51.512;-0.382;2022-10-30T02:56:11;14.30;99.90
30037;DHT22;36325;51.512;-0.382;2022-10-30T02:58:41;14.30;99.90
30037;DHT22;36325;51.512;-0.382;2022-10-30T03:01:13;14.20;99.90
30037;DHT22;36325;51.512;-0.382;2022-10-30T03:03:42;14.20;99.90
30037;DHT22;36325;51.512;-0.382;2022-10-30T03:06:12;14.20;99.90
30037;DHT22;36325;51.512;-0.382;2022-10-30T03:08:42;14.20;99.90
30037;DHT22;36325;51.512;-0.382;2022-10-30T03:11:15;13.70;99.90
30037;DHT22;36325;51.512;-0.382;2022-10-30T03:13:43;14.10;99.90
30037;DHT22;36325;51.512;-0.382;2022-10-30T03:16:22;14.40;99.90
30037;DHT22;36325;51.512;-0.382;2022-10-30T03:18:51;14.10;99.90
30037;DHT22;36325;51.512;-0.382;2022-10-30T03:21:20;14.00;99.90
30037;DHT22;36325;51.512;-0.382;2022-10-30T03:23:48;14.00;99.90
30037;DHT22;36325;51.512;-0.382;2022-10-30T03:26:20;14.00;99.90
30037;DHT22;36325;51.512;-0.382;2022-10-30T03:28:55;14.00;99.90
30037;DHT22;36325;51.512;-0.382;2022-10-30T03:31:25;14.00;99.90
30037;DHT22;36325;51.512;-0.382;2022-10-30T03:34:13;14.00;99.90
30037;DHT22;36325;51.512;-0.382;2022-10-30T03:36:41;14.00;99.90
30037;DHT22;36325;51.512;-0.382;2022-10-30T03:39:08;14.00;99.90
30037;DHT22;36325;51.512;-0.382;2022-10-30T03:41:36;14.00;99.90
30037;DHT22;36325;51.512;-0.382;2022-10-30T03:44:03;14.00;99.90
30037;DHT22;36325;51.512;-0.382;2022-10-30T03:46:31;14.00;99.90
30037;DHT22;36325;51.512;-0.382;2022-10-30T03:49:13;14.00;99.90
30037;DHT22;36325;51.512;-0.382;2022-10-30T03:51:40;14.00;99.90
30037;DHT22;36325;51.512;-0.382;2022-10-30T03:54:08;14.00;99.90
30037;DHT22;36325;51.512;-0.382;2022-10-30T03:56:35;14.00;99.90
30037;DHT22;36325;51.512;-0.382;2022-10-30T03:59:04;14.00;99.90
30037;DHT22;36325;51.512;-0.382;2022-10-30T04:01:38;14.10;99.90
30037;DHT22;36325;51.512;-0.382;2022-10-30T04:04:21;14.00;99.90
30037;DHT22;36325;51.512;-0.382;2022-10-30T04:07:06;14.10;99.90
30037;DHT22;36325;51.512;-0.382;2022-10-30T04:09:44;14.00;99.90
30037;DHT22;36325;51.512;-0.382;2022-10-30T04:12:11;14.00;99.90
30037;DHT22;36325;51.512;-0.382;2022-10-30T04:14:38;14.00;99.90
30037;DHT22;36325;51.512;-0.382;2022-10-30T04:17:06;14.00;99.90
30037;DHT22;36325;51.512;-0.382;2022-10-30T04:19:33;14.00;99.90
30037;DHT22;36325;51.512;-0.382;2022-10-30T04:22:00;14.00;99.90
30037;DHT22;36325;51.512;-0.382;2022-10-30T04:24:27;15.30;99.90
30037;DHT22;36325;51.512;-0.382;2022-10-30T04:26:55;14.00;99.90
30037;DHT22;36325;51.512;-0.382;2022-10-30T04:29:24;14.00;99.90
30037;DHT22;36325;51.512;-0.382;2022-10-30T04:31:51;14.10;99.90
30037;DHT22;36325;51.512;-0.382;2022-10-30T04:34:19;14.10;99.90
30037;DHT22;36325;51.512;-0.382;2022-10-30T04:36:46;14.10;99.90
30037;DHT22;36325;51.512;-0.382;2022-10-30T04:39:14;14.10;99.90
30037;DHT22;36325;51.512;-0.382;2022-10-30T04:41:42;14.10;99.90
30037;DHT22;36325;51.512;-0.382;2022-10-30T04:44:16;14.10;99.90
30037;DHT22;36325;51.512;-0.382;2022-10-30T04:46:43;14.20;99.90
30037;DHT22;36325;51.512;-0.382;2022-10-30T04:49:10;14.20;99.90
30037;DHT22;36325;51.512;-0.382;2022-10-30T04:51:38;14.20;99.90
30037;DHT22;36325;51.512;-0.382;2022-10-30T04:54:06;14.20;99.90
30037;DHT22;36325;51.512;-0.382;2022-10-30T04:56:37;14.30;99.90
30037;DHT22;36325;51.512;-0.382;2022-10-30T04:59:04;14.30;99.90
30037;DHT22;36325;51.512;-0.382;2022-10-30T05:01:32;14.30;99.90
30037;DHT22;36325;51.512;-0.382;2022-10-30T05:04:01;14.30;99.90
30037;DHT22;36325;51.512;-0.382;2022-10-30T05:06:30;14.30;99.90
30037;DHT22;36325;51.512;-0.382;2022-10-30T05:08:58;14.30;99.90
30037;DHT22;36325;51.512;-0.382;2022-10-30T05:11:31;14.30;99.90
30037;DHT22;36325;51.512;-0.382;2022-10-30T05:13:58;14.40;99.90
30037;DHT22;36325;51.512;-0.382;2022-10-30T05:16:25;14.40;99.90
30037;DHT22;36325;51.512;-0.382;2022-10-30T05:18:54;14.40;99.90
30037;DHT22;36325;51.512;-0.382;2022-10-30T05:21:21;14.40;99.90
30037;DHT22;36325;51.512;-0.382;2022-10-30T05:23:49;14.40;99.90
30037;DHT22;36325;51.512;-0.382;2022-10-30T05:26:16;14.50;99.90
30037;DHT22;36325;51.512;-0.382;2022-10-30T05:28:44;14.40;99.90
30037;DHT22;36325;51.512;-0.382;2022-10-30T05:31:11;14.50;99.90
30037;DHT22;36325;51.512;-0.382;2022-10-30T05:33:56;14.50;99.90
30037;DHT22;36325;51.512;-0.382;2022-10-30T05:36:25;14.50;99.90
30037;DHT22;36325;51.512;-0.382;2022-10-30T05:38:53;14.50;99.90
30037;DHT22;36325;51.512;-0.382;2022-10-30T05:41:33;14.50;99.90
30037;DHT22;36325;51.512;-0.382;2022-10-30T05:44:02;13.70;99.90
30037;DHT22;36325;51.512;-0.382;2022-10-30T05:46:30;14.60;99.90
30037;DHT22;36325;51.512;-0.382;2022-10-30T05:49:07;14.50;99.90
30037;DHT22;36325;51.512;-0.382;2022-10-30T05:51:34;14.60;99.90
30037;DHT22;36325;51.512;-0.382;2022-10-30T05:54:04;14.60;99.90
30037;DHT22;36325;51.512;-0.382;2022-10-30T05:56:34;14.60;99.90
30037;DHT22;36325;51.512;-0.382;2022-10-30T05:59:01;14.60;99.90
30037;DHT22;36325;51.512;-0.382;2022-10-30T06:01:28;14.60;99.90
30037;DHT22;36325;51.512;-0.382;2022-10-30T06:03:58;14.60;99.90
30037;DHT22;36325;51.512;-0.382;2022-10-30T06:06:26;14.70;99.90
30037;DHT22;36325;51.512;-0.382;2022-10-30T06:08:54;14.70;99.90
30037;DHT22;36325;51.512;-0.382;2022-10-30T06:11:45;14.70;99.90
30037;DHT22;36325;51.512;-0.382;2022-10-30T06:14:13;14.70;99.90
30037;DHT22;36325;51.512;-0.382;2022-10-30T06:16:49;14.70;99.90
30037;DHT22;36325;51.512;-0.382;2022-10-30T06:19:40;14.70;99.90
30037;DHT22;36325;51.512;-0.382;2022-10-30T06:22:27;14.80;99.90
30037;DHT22;36325;51.512;-0.382;2022-10-30T06:25:03;14.80;99.90
30037;DHT22;36325;51.512;-0.382;2022-10-30T06:27:49;14.90;99.90
30037;DHT22;36325;51.512;-0.382;2022-10-30T06:30:17;15.00;99.90
30037;DHT22;36325;51.512;-0.382;2022-10-30T06:32:44;14.90;99.90
30037;DHT22;36325;51.512;-0.382;2022-10-30T06:35:12;15.00;99.90
30037;DHT22;36325;51.512;-0.382;2022-10-30T06:37:47;15.00;99.90
30037;DHT22;36325;51.512;-0.382;2022-10-30T06:40:15;15.00;99.90
30037;DHT22;36325;51.512;-0.382;2022-10-30T06:42:50;15.10;99.90
30037;DHT22;36325;51.512;-0.382;2022-10-30T06:45:35;15.10;99.90
30037;DHT22;36325;51.512;-0.382;2022-10-30T06:48:02;15.10;99.90
30037;DHT22;36325;51.512;-0.382;2022-10-30T06:50:35;15.10;99.90
30037;DHT22;36325;51.512;-0.382;2022-10-30T06:53:03;15.10;99.90
30037;DHT22;36325;51.512;-0.382;2022-10-30T06:55:32;15.10;99.90
30037;DHT22;36325;51.512;-0.382;2022-10-30T06:58:19;15.20;99.90
30037;DHT22;36325;51.512;-0.382;2022-10-30T07:01:02;15.20;99.90
30037;DHT22;36325;51.512;-0.382;2022-10-30T07:03:52;15.20;99.90
30037;DHT22;36325;51.512;-0.382;2022-10-30T07:06:21;15.20;99.90
30037;DHT22;36325;51.512;-0.382;2022-10-30T07:08:48;15.20;99.90
30037;DHT22;36325;51.512;-0.382;2022-10-30T07:11:18;15.20;99.90
30037;DHT22;36325;51.512;-0.382;2022-10-30T07:13:58;15.20;99.90
30037;DHT22;36325;51.512;-0.382;2022-10-30T07:16:35;15.10;99.90
30037;DHT22;36325;51.512;-0.382;2022-10-30T07:19:03;15.10;99.90
30037;DHT22;36325;51.512;-0.382;2022-10-30T07:21:32;15.00;99.90
30037;DHT22;36325;51.512;-0.382;2022-10-30T07:24:04;15.10;99.90
30037;DHT22;36325;51.512;-0.382;2022-10-30T07:26:43;15.00;99.90
30037;DHT22;36325;51.512;-0.382;2022-10-30T07:29:40;15.00;99.90
30037;DHT22;36325;51.512;-0.382;2022-10-30T07:32:33;15.00;99.90
30037;DHT22;36325;51.512;-0.382;2022-10-30T07:35:12;15.00;99.90
30037;DHT22;36325;51.512;-0.382;2022-10-30T07:38:09;15.00;99.90
30037;DHT22;36325;51.512;-0.382;2022-10-30T07:40:53;15.00;99.90
30037;DHT22;36325;51.512;-0.382;2022-10-30T07:43:38;15.00;99.90
30037;DHT22;36325;51.512;-0.382;2022-10-30T07:46:41;15.00;99.90
30037;DHT22;36325;51.512;-0.382;2022-10-30T07:49:27;15.00;99.90
30037;DHT22;36325;51.512;-0.382;2022-10-30T07:52:03;15.00;99.90
30037;DHT22;36325;51.512;-0.382;2022-10-30T07:54:31;15.00;99.90
30037;DHT22;36325;51.512;-0.382;2022-10-30T07:57:13;15.00;99.90
30037;DHT22;36325;51.512;-0.382;2022-10-30T07:59:58;15.00;99.90
30037;DHT22;36325;51.512;-0.382;2022-10-30T08:02:55;15.00;99.90
30037;DHT22;36325;51.512;-0.382;2022-10-30T08:05:33;15.00;99.90
30037;DHT22;36325;51.512;-0.382;2022-10-30T08:08:07;15.10;99.90
30037;DHT22;36325;51.512;-0.382;2022-10-30T08:10:36;15.10;99.90
30037;DHT22;36325;51.512;-0.382;2022-10-30T08:13:04;15.10;99.90
30037;DHT22;36325;51.512;-0.382;2022-10-30T08:15:31;15.10;99.90
30037;DHT22;36325;51.512;-0.382;2022-10-30T08:17:59;15.10;99.90
30037;DHT22;36325;51.512;-0.382;2022-10-30T08:20:26;15.10;99.90
30037;DHT22;36325;51.512;-0.382;2022-10-30T08:22:55;15.10;99.90
30037;DHT22;36325;51.512;-0.382;2022-10-30T08:25:26;15.10;99.90
30037;DHT22;36325;51.512;-0.382;2022-10-30T08:28:00;15.10;99.90
30037;DHT22;36325;51.512;-0.382;2022-10-30T08:30:34;15.10;99.90
30037;DHT22;36325;51.512;-0.382;2022-10-30T08:33:04;15.20;99.90
30037;DHT22;36325;51.512;-0.382;2022-10-30T08:35:54;15.20;99.90
30037;DHT22;36325;51.512;-0.382;2022-10-30T08:38:26;15.20;99.90
30037;DHT22;36325;51.512;-0.382;2022-10-30T08:41:14;15.10;99.90
30037;DHT22;36325;51.512;-0.382;2022-10-30T08:43:45;15.10;99.90
30037;DHT22;36325;51.512;-0.382;2022-10-30T08:46:12;15.10;99.90
30037;DHT22;36325;51.512;-0.382;2022-10-30T08:48:40;15.10;99.90
30037;DHT22;36325;51.512;-0.382;2022-10-30T08:51:07;15.10;99.90
30037;DHT22;36325;51.512;-0.382;2022-10-30T08:53:40;15.10;99.90
30037;DHT22;36325;51.512;-0.382;2022-10-30T08:56:12;15.10;99.90
30037;DHT22;36325;51.512;-0.382;2022-10-30T08:58:50;15.10;99.90
30037;DHT22;36325;51.512;-0.382;2022-10-30T09:01:17;15.10;99.90
30037;DHT22;36325;51.512;-0.382;2022-10-30T09:04:06;15.10;99.90
30037;DHT22;36325;51.512;-0.382;2022-10-30T09:06:51;15.10;99.90
30037;DHT22;36325;51.512;-0.382;2022-10-30T09:09:46;15.10;99.90
30037;DHT22;36325;51.512;-0.382;2022-10-30T09:12:13;15.10;99.90
30037;DHT22;36325;51.512;-0.382;2022-10-30T09:14:44;15.10;99.90
30037;DHT22;36325;51.512;-0.382;2022-10-30T09:17:12;15.10;99.90
30037;DHT22;36325;51.512;-0.382;2022-10-30T09:19:42;15.10;99.90
30037;DHT22;36325;51.512;-0.382;2022-10-30T09:22:16;15.10;99.90
30037;DHT22;36325;51.512;-0.382;2022-10-30T09:24:43;15.10;99.90
30037;DHT22;36325;51.512;-0.382;2022-10-30T09:27:42;15.10;99.90
30037;DHT22;36325;51.512;-0.382;2022-10-30T09:30:14;15.10;99.90
30037;DHT22;36325;51.512;-0.382;2022-10-30T09:32:44;15.00;99.90
30037;DHT22;36325;51.512;-0.382;2022-10-30T09:35:19;15.00;99.90
30037;DHT22;36325;51.512;-0.382;2022-10-30T09:37:48;14.90;99.90
30037;DHT22;36325;51.512;-0.382;2022-10-30T09:59:52;14.30;99.90
30037;DHT22;36325;51.512;-0.382;2022-10-30T10:02:36;14.90;99.90
30037;DHT22;36325;51.512;-0.382;2022-10-30T10:08:50;15.10;99.90
30037;DHT22;36325;51.512;-0.382;2022-10-30T10:12:07;15.20;99.90
30037;DHT22;36325;51.512;-0.382;2022-10-30T10:14:41;15.20;99.90
30037;DHT22;36325;51.512;-0.382;2022-10-30T10:17:13;15.20;99.90
30037;DHT22;36325;51.512;-0.382;2022-10-30T10:19:47;15.20;99.90
30037;DHT22;36325;51.512;-0.382;2022-10-30T10:22:21;15.20;99.90
30037;DHT22;36325;51.512;-0.382;2022-10-30T10:24:49;15.20;99.90
30037;DHT22;36325;51.512;-0.382;2022-10-30T10:27:56;15.20;99.90
30037;DHT22;36325;51.512;-0.382;2022-10-30T10:33:27;15.10;99.90
30037;DHT22;36325;51.512;-0.382;2022-10-30T10:47:03;15.00;99.90
30037;DHT22;36325;51.512;-0.382;2022-10-30T10:52:19;15.10;99.90
30037;DHT22;36325;51.512;-0.382;2022-10-30T10:55:04;15.10;99.90
30037;DHT22;36325;51.512;-0.382;2022-10-30T10:57:36;15.20;99.90
30037;DHT22;36325;51.512;-0.382;2022-10-30T11:00:09;15.20;99.90
30037;DHT22;36325;51.512;-0.382;2022-10-30T11:05:33;15.30;99.90
30037;DHT22;36325;51.512;-0.382;2022-10-30T11:08:20;15.40;99.90
30037;DHT22;36325;51.512;-0.382;2022-10-30T11:10:55;15.60;99.90
30037;DHT22;36325;51.512;-0.382;2022-10-30T11:13:38;15.70;99.90
30037;DHT22;36325;51.512;-0.382;2022-10-30T11:16:42;15.90;99.90
30037;DHT22;36325;51.512;-0.382;2022-10-30T11:19:12;16.10;99.90
30037;DHT22;36325;51.512;-0.382;2022-10-30T11:21:48;16.10;99.90
30037;DHT22;36325;51.512;-0.382;2022-10-30T11:24:32;16.20;99.90
30037;DHT22;36325;51.512;-0.382;2022-10-30T11:32:21;16.20;99.90
30037;DHT22;36325;51.512;-0.382;2022-10-30T11:37:37;16.30;99.90
30037;DHT22;36325;51.512;-0.382;2022-10-30T11:45:26;16.30;99.90
30037;DHT22;36325;51.512;-0.382;2022-10-30T11:47:56;16.30;99.90
30037;DHT22;36325;51.512;-0.382;2022-10-30T11:50:30;16.30;99.90
30037;DHT22;36325;51.512;-0.382;2022-10-30T11:53:02;16.30;99.90
30037;DHT22;36325;51.512;-0.382;2022-10-30T11:55:56;16.30;99.90
30037;DHT22;36325;51.512;-0.382;2022-10-30T11:58:34;16.40;99.90
30037;DHT22;36325;51.512;-0.382;2022-10-30T12:03:38;16.80;99.90
30037;DHT22;36325;51.512;-0.382;2022-10-30T12:11:33;17.00;99.90
30037;DHT22;36325;51.512;-0.382;2022-10-30T12:14:01;17.00;99.90
30037;DHT22;36325;51.512;-0.382;2022-10-30T12:16:29;17.00;99.90
30037;DHT22;36325;51.512;-0.382;2022-10-30T12:19:04;17.00;99.90
30037;DHT22;36325;51.512;-0.382;2022-10-30T12:21:39;16.90;99.90
30037;DHT22;36325;51.512;-0.382;2022-10-30T12:24:18;16.90;99.90
30037;DHT22;36325;51.512;-0.382;2022-10-30T12:26:51;16.90;99.90
30037;DHT22;36325;51.512;-0.382;2022-10-30T12:29:24;16.90;99.90
30037;DHT22;36325;51.512;-0.382;2022-10-30T12:32:16;16.80;99.90
30037;DHT22;36325;51.512;-0.382;2022-10-30T12:34:48;16.80;99.90
30037;DHT22;36325;51.512;-0.382;2022-10-30T12:37:31;16.80;99.90
30037;DHT22;36325;51.512;-0.382;2022-10-30T12:42:27;17.00;99.90
30037;DHT22;36325;51.512;-0.382;2022-10-30T12:50:02;17.00;99.90
30037;DHT22;36325;51.512;-0.382;2022-10-30T12:52:34;16.90;99.90
30037;DHT22;36325;51.512;-0.382;2022-10-30T12:55:13;16.90;99.90
30037;DHT22;36325;51.512;-0.382;2022-10-30T12:57:52;16.90;99.90
30037;DHT22;36325;51.512;-0.382;2022-10-30T13:00:21;16.80;99.90
30037;DHT22;36325;51.512;-0.382;2022-10-30T13:05:56;16.70;99.90
30037;DHT22;36325;51.512;-0.382;2022-10-30T13:11:54;16.60;99.90
30037;DHT22;36325;51.512;-0.382;2022-10-30T13:15:17;16.60;99.90
30037;DHT22;36325;51.512;-0.382;2022-10-30T13:17:36;16.60;99.90
30037;DHT22;36325;51.512;-0.382;2022-10-30T13:20:13;16.60;99.90
30037;DHT22;36325;51.512;-0.382;2022-10-30T13:22:53;16.60;99.90
30037;DHT22;36325;51.512;-0.382;2022-10-30T13:25:30;16.60;99.90
30037;DHT22;36325;51.512;-0.382;2022-10-30T13:28:19;16.70;99.90
30037;DHT22;36325;51.512;-0.382;2022-10-30T13:31:13;16.70;99.90
30037;DHT22;36325;51.512;-0.382;2022-10-30T13:36:51;17.10;99.90
30037;DHT22;36325;51.512;-0.382;2022-10-30T13:45:50;18.50;99.90
30037;DHT22;36325;51.512;-0.382;2022-10-30T13:51:40;20.00;99.90
30037;DHT22;36325;51.512;-0.382;2022-10-30T13:54:32;21.00;99.90
30037;DHT22;36325;51.512;-0.382;2022-10-30T14:00:19;22.90;99.90
30037;DHT22;36325;51.512;-0.382;2022-10-30T14:05:39;22.10;99.90
30037;DHT22;36325;51.512;-0.382;2022-10-30T14:08:29;21.20;99.90
30037;DHT22;36325;51.512;-0.382;2022-10-30T14:10:59;21.60;99.90
30037;DHT22;36325;51.512;-0.382;2022-10-30T14:13:42;22.40;99.90
30037;DHT22;36325;51.512;-0.382;2022-10-30T14:21:49;20.30;99.90
30037;DHT22;36325;51.512;-0.382;2022-10-30T14:24:32;19.70;99.90
30037;DHT22;36325;51.512;-0.382;2022-10-30T14:40:47;17.50;99.90
30037;DHT22;36325;51.512;-0.382;2022-10-30T14:43:43;17.30;99.90
30037;DHT22;36325;51.512;-0.382;2022-10-30T14:46:22;17.20;99.90
30037;DHT22;36325;51.512;-0.382;2022-10-30T14:52:03;17.10;99.90
30037;DHT22;36325;51.512;-0.382;2022-10-30T14:54:58;17.00;99.90
30037;DHT22;36325;51.512;-0.382;2022-10-30T14:57:45;17.00;99.90
30037;DHT22;36325;51.512;-0.382;2022-10-30T15:03:18;17.20;99.90
30037;DHT22;36325;51.512;-0.382;2022-10-30T15:06:05;17.40;99.90
30037;DHT22;36325;51.512;-0.382;2022-10-30T15:14:40;17.30;99.90
30037;DHT22;36325;51.512;-0.382;2022-10-30T15:17:27;17.20;99.90
30037;DHT22;36325;51.512;-0.382;2022-10-30T15:19:54;17.20;99.90
30037;DHT22;36325;51.512;-0.382;2022-10-30T15:22:22;17.20;99.90
30037;DHT22;36325;51.512;-0.382;2022-10-30T15:24:53;17.10;99.90
30037;DHT22;36325;51.512;-0.382;2022-10-30T15:27:22;17.10;99.90
30037;DHT22;36325;51.512;-0.382;2022-10-30T15:29:55;17.00;99.90
30037;DHT22;36325;51.512;-0.382;2022-10-30T15:32:25;17.00;99.90
30037;DHT22;36325;51.512;-0.382;2022-10-30T15:35:01;16.60;99.90
30037;DHT22;36325;51.512;-0.382;2022-10-30T15:37:33;16.90;99.90
30037;DHT22;36325;51.512;-0.382;2022-10-30T15:40:18;16.90;99.90
30037;DHT22;36325;51.512;-0.382;2022-10-30T15:42:47;16.80;99.90
30037;DHT22;36325;51.512;-0.382;2022-10-30T15:45:22;16.80;99.90
30037;DHT22;36325;51.512;-0.382;2022-10-30T15:50:34;16.90;99.90
30037;DHT22;36325;51.512;-0.382;2022-10-30T15:53:13;17.00;99.90
30037;DHT22;36325;51.512;-0.382;2022-10-30T15:55:41;17.10;99.90
30037;DHT22;36325;51.512;-0.382;2022-10-30T15:58:14;17.20;99.90
30037;DHT22;36325;51.512;-0.382;2022-10-30T16:00:58;17.10;99.90
30037;DHT22;36325;51.512;-0.382;2022-10-30T16:03:26;17.40;99.90
30037;DHT22;36325;51.512;-0.382;2022-10-30T16:06:14;17.60;99.90
30037;DHT22;36325;51.512;-0.382;2022-10-30T16:08:45;17.70;99.90
30037;DHT22;36325;51.512;-0.382;2022-10-30T16:11:13;17.50;99.90
30037;DHT22;36325;51.512;-0.382;2022-10-30T16:13:42;17.30;99.90
30037;DHT22;36325;51.512;-0.382;2022-10-30T16:16:25;18.30;99.90
30037;DHT22;36325;51.512;-0.382;2022-10-30T16:18:58;17.10;99.90
30037;DHT22;36325;51.512;-0.382;2022-10-30T16:21:27;16.70;99.90
30037;DHT22;36325;51.512;-0.382;2022-10-30T16:23:59;16.60;99.90
30037;DHT22;36325;51.512;-0.382;2022-10-30T16:26:31;16.50;99.90
30037;DHT22;36325;51.512;-0.382;2022-10-30T16:29:14;16.30;99.90
30037;DHT22;36325;51.512;-0.382;2022-10-30T16:31:44;16.20;99.90
30037;DHT22;36325;51.512;-0.382;2022-10-30T16:34:27;16.10;99.90
30037;DHT22;36325;51.512;-0.382;2022-10-30T16:36:57;16.00;99.90
30037;DHT22;36325;51.512;-0.382;2022-10-30T16:39:25;15.90;99.90
30037;DHT22;36325;51.512;-0.382;2022-10-30T16:41:57;15.70;99.90
30037;DHT22;36325;51.512;-0.382;2022-10-30T16:44:27;15.70;99.90
30037;DHT22;36325;51.512;-0.382;2022-10-30T16:49:30;15.50;99.90
30037;DHT22;36325;51.512;-0.382;2022-10-30T16:52:02;15.40;99.90
30037;DHT22;36325;51.512;-0.382;2022-10-30T16:54:39;15.40;99.90
30037;DHT22;36325;51.512;-0.382;2022-10-30T16:57:21;15.30;99.90
30037;DHT22;36325;51.512;-0.382;2022-10-30T16:59:50;15.30;99.90
30037;DHT22;36325;51.512;-0.382;2022-10-30T17:02:22;15.20;99.90
30037;DHT22;36325;51.512;-0.382;2022-10-30T17:07:37;15.20;99.90
30037;DHT22;36325;51.512;-0.382;2022-10-30T17:10:28;15.10;99.90
30037;DHT22;36325;51.512;-0.382;2022-10-30T17:16:30;15.00;99.90
30037;DHT22;36325;51.512;-0.382;2022-10-30T17:22:08;14.90;99.90
30037;DHT22;36325;51.512;-0.382;2022-10-30T17:24:38;14.80;99.90
30037;DHT22;36325;51.512;-0.382;2022-10-30T17:27:22;14.80;99.90
30037;DHT22;36325;51.512;-0.382;2022-10-30T17:29:52;14.70;99.90
30037;DHT22;36325;51.512;-0.382;2022-10-30T17:32:24;14.70;99.90
30037;DHT22;36325;51.512;-0.382;2022-10-30T17:35:10;14.60;99.90
30037;DHT22;36325;51.512;-0.382;2022-10-30T17:37:38;14.60;99.90
30037;DHT22;36325;51.512;-0.382;2022-10-30T17:40:05;14.50;99.90
30037;DHT22;36325;51.512;-0.382;2022-10-30T17:42:33;14.50;99.90
30037;DHT22;36325;51.512;-0.382;2022-10-30T17:45:00;14.50;99.90
30037;DHT22;36325;51.512;-0.382;2022-10-30T17:47:27;14.40;99.90
30037;DHT22;36325;51.512;-0.382;2022-10-30T17:49:54;14.40;99.90
30037;DHT22;36325;51.512;-0.382;2022-10-30T17:52:22;14.20;99.90
30037;DHT22;36325;51.512;-0.382;2022-10-30T17:54:49;14.30;99.90
30037;DHT22;36325;51.512;-0.382;2022-10-30T17:57:16;14.30;99.90
30037;DHT22;36325;51.512;-0.382;2022-10-30T17:59:43;14.30;99.90
30037;DHT22;36325;51.512;-0.382;2022-10-30T18:02:19;14.30;99.90
30037;DHT22;36325;51.512;-0.382;2022-10-30T18:04:47;14.30;99.90
30037;DHT22;36325;51.512;-0.382;2022-10-30T18:07:16;14.20;99.90
30037;DHT22;36325;51.512;-0.382;2022-10-30T18:09:49;14.20;99.90
30037;DHT22;36325;51.512;-0.382;2022-10-30T18:12:18;14.20;99.90
30037;DHT22;36325;51.512;-0.382;2022-10-30T18:14:45;14.20;99.90
30037;DHT22;36325;51.512;-0.382;2022-10-30T18:17:13;14.20;99.90
30037;DHT22;36325;51.512;-0.382;2022-10-30T18:19:41;14.20;99.90
30037;DHT22;36325;51.512;-0.382;2022-10-30T18:22:09;14.20;99.90
30037;DHT22;36325;51.512;-0.382;2022-10-30T18:24:37;14.20;99.90
30037;DHT22;36325;51.512;-0.382;2022-10-30T18:27:05;14.20;99.90
30037;DHT22;36325;51.512;-0.382;2022-10-30T18:29:32;14.30;99.90
30037;DHT22;36325;51.512;-0.382;2022-10-30T18:31:59;14.30;99.90
30037;DHT22;36325;51.512;-0.382;2022-10-30T18:34:31;14.30;99.90
30037;DHT22;36325;51.512;-0.382;2022-10-30T18:36:58;14.20;99.90
30037;DHT22;36325;51.512;-0.382;2022-10-30T18:39:26;14.20;99.90
30037;DHT22;36325;51.512;-0.382;2022-10-30T18:41:53;14.20;99.90